Bango, Nevada Weather observations

Data are for 10 minute period ending at time listed.
 Day   Time    Ave.   Ave.  Ave.  Vector   Max.   Stn.    Total    Solar   Ave.  
  of    of     Air    Rel.  Wind   Wind    Wind   Baro.  Precip.   Rad.    Soil  
Year   Day     Temp.  Hum.  Speed  Dir.    Gust   Pres.                    Temp. 
2016   (PST)    F      %     mph   deg.    mph     mb.     in.     W/m2     F    
--------------------------------------------------------------------------------- 
 271   15:30   87.9    10    5.3    91     10.5   874.4    0.00     441    27.2  
 271   15:40   87.5    10    5.5    66      8.7   874.3    0.00     409    27.4  
 271   15:50   87.4    10    5.0    45     10.5   874.2    0.00     376    27.6  
 271   16:00   88.1    10    2.6    60      8.7   874.2    0.00     342    27.8  
 271   16:10   87.6    10    5.1    74      8.7   874.1    0.00     309    27.9  
 271   16:20   87.4    10    5.3   111      8.7   874.1    0.00     276    28.1  
 271   16:30   87.3    10    5.9    95      8.7   874.1    0.00     242    28.3  
 271   16:40   87.1    10    5.3    72      8.7   874.0    0.00     208    28.4  
 271   16:50   86.6    10    5.4    90      9.6   873.9    0.00     176    28.6  
 271   17:00   86.3    11    4.5   101      6.0   873.9    0.00     144    28.7  
 271   17:10   85.8    11    5.0   100      6.9   873.9    0.00     105    28.8  
 271   17:20   85.0    11    5.2    98      6.9   873.8    0.00      66    29.0  
 271   17:30   83.7    12    4.2    94      5.1   873.8    0.00      34    29.1  
 271   17:40   81.9    13    2.7    84      5.1   873.7    0.00      11    29.2  
 271   17:50   80.8    14    2.5    77      4.2   873.7    0.00       5    29.2  
 271   18:00   80.3    14    3.2    84      5.1   873.8    0.00       2    29.3  
 271   18:10   78.9    14    3.9    91      5.1   873.8    0.00       0    29.4  
 271   18:20   77.1    14    2.6    85      4.2   873.8    0.00       0    29.5  
 271   18:30   74.5    15    0.8    75      3.3   873.8    0.00       0    29.5  
 271   18:40   72.8    15    0.6    97      0.6   873.7    0.00       0    29.5  
 271   18:50   72.3    15    0.6   136      0.6   873.7    0.00       0    29.6  
 271   19:00   71.1    15    0.6   183      0.6   873.7    0.00       0    29.6  
 271   19:10   69.5    16    0.9   266      2.4   873.7    0.00       0    29.6  
 271   19:20   69.4    17    0.8   299      2.4   873.7    0.00       0    29.6  
 271   19:30   69.5    17    1.3   346      3.3   873.7    0.00       0    29.6  
 271   19:40   69.7    17    0.6   336      1.5   873.9    0.00       0    29.6  
 271   19:50   69.7    17    1.6   348      3.3   873.9    0.00       0    29.5  
 271   20:00   68.9    17    0.7   329      2.4   873.9    0.00       0    29.5  
 271   20:10   67.4    18    0.6   319      0.6   873.9    0.00       0    29.5  
 271   20:20   67.7    17    0.6   324      0.6   873.9    0.00       0    29.4  
 271   20:30   66.3    18    0.6   302      0.6   873.8    0.00       0    29.4  
 271   20:40   66.1    18    0.6   311      0.6   873.9    0.00       0    29.3  
 271   20:50   65.3    18    0.6   283      0.6   873.9    0.00       0    29.2  
 271   21:00   64.3    19    0.6   204      0.6   873.8    0.00       0    29.2  
 271   21:10   64.5    19    0.6   204      0.6   873.9    0.00       0    29.1  
 271   21:20   64.0    20    0.6   210      0.6   873.9    0.00       0    29.0  
 271   21:30   62.7    23    0.6   208      0.6   873.9    0.00       0    29.0  
 271   21:40   62.2    24    0.6   203      0.6   873.9    0.00       0    28.9  
 271   21:50   62.0    23    6.0   208      9.6   873.9    0.00       0    28.8  
 271   22:00   60.9    23    6.1   237      7.8   873.8    0.00       0    28.7  
 271   22:10   61.4    22    5.7   247      6.9   873.8    0.00       0    28.6  
 271   22:20   62.5    21    6.1   239      7.8   873.8    0.00       0    28.6  
 271   22:30   62.4    21    8.2   237      9.6   873.9    0.00       0    28.5  
 271   22:40   62.0    21    7.7   237      9.6   873.9    0.00       0    28.4  
 271   22:50   61.6    21    1.7   233      7.8   873.8    0.00       0    28.3  
 271   23:00   61.2    22    0.7   216      3.3   873.8    0.00       0    28.2  
 271   23:10   59.7    24    0.6   220      0.6   873.8    0.00       0    28.1  
 271   23:20   60.4    23    0.6   236      0.6   873.8    0.00       0    28.0  
 271   23:30   60.7    22    0.6   244      0.6   873.8    0.00       0    27.9  
 271   23:40   60.2    23    0.6   231      0.6   873.8    0.00       0    27.8  
 271   23:50   60.7    23    0.6   231      0.6   873.8    0.00       0    27.7  
 272    0:00   60.8    24    0.6   230      0.6   873.8    0.00       0    27.6  
 272    0:10   61.8    22    0.6   230      0.6   873.8    0.00       0    27.5  
 272    0:20   64.0    21    0.6   243      0.6   873.8    0.00       0    27.4  
 272    0:30   63.9    21    0.6   252      0.6   873.8    0.00       0    27.3  
 272    0:40   62.6    22    0.6   225      0.6   873.9    0.00       0    27.2  
 272    0:50   61.4    23    0.6   207      0.6   874.0    0.00       0    27.2  
 272    1:00   60.7    24    0.6   214      0.6   874.0    0.00       0    27.1  
 272    1:10   58.9    25    0.6   212      0.6   874.0    0.00       0    27.0  
 272    1:20   57.4    26    0.6   218      0.6   874.0    0.00       0    26.9  
 272    1:30   58.3    25    5.7   224      9.6   874.0    0.00       0    26.8  
 272    1:40   57.4    25    0.6   249      1.5   874.0    0.00       0    26.7  
 272    1:50   58.5    25    0.6   233      0.6   874.1    0.00       0    26.6  
 272    2:00   60.0    24    0.6   230      0.6   874.1    0.00       0    26.5  
 272    2:10   59.0    24    0.6   235      0.6   874.1    0.00       0    26.5  
 272    2:20   57.7    25    0.6   242      0.6   874.1    0.00       0    26.4  
 272    2:30   56.6    26    1.0   244      9.6   874.0    0.00       0    26.3  
 272    2:40   56.3    26    6.7   219      8.7   874.0    0.00       0    26.2  
 272    2:50   57.2    26    5.8   237      6.9   874.0    0.00       0    26.1  
 272    3:00   56.8    26    2.5   230      5.1   874.1    0.00       0    26.0  
 272    3:10   58.7    25    0.6   246      1.5   874.0    0.00       0    25.9  
 272    3:20   58.7    25    0.6   249      0.6   874.0    0.00       0    25.8  
 272    3:30   56.6    26    0.6   250      0.6   874.0    0.00       0    25.8  
 272    3:40   56.4    27    0.6   225      0.6   874.1    0.00       0    25.7  
 272    3:50   57.8    26    0.6   216      0.6   874.1    0.00       0    25.6  
 272    4:00   56.8    26    0.7   212      7.8   874.3    0.00       0    25.5  
 272    4:10   56.3    27    6.5   227      9.6   874.3    0.00       0    25.4  
 272    4:20   56.8    27    6.1   234      6.9   874.4    0.00       0    25.3  
 272    4:30   57.4    26    2.6   224      6.9   874.4    0.00       0    25.2  
 272    4:40   56.6    26    3.5   241      7.8   874.4    0.00       0    25.2  
 272    4:50   56.6    27    8.4   250     11.4   874.4    0.00       0    25.1  
 272    5:00   57.3    27    9.5   249     11.4   874.4    0.00       0    25.0  
 272    5:10   56.1    27    8.2   241      9.6   874.4    0.00       0    24.9  
 272    5:20   56.8    27    9.6   241     11.4   874.4    0.00       0    24.9  
 272    5:30   58.2    26    9.2   241     11.4   874.6    0.00       0    24.8  
 272    5:40   59.5    25    8.9   231     10.5   874.6    0.00       1    24.7  
 272    5:50   56.1    27    7.1   213      8.7   874.6    0.00       2    24.6  
 272    6:00   55.2    30    6.5   197      8.7   874.7    0.00       8    24.5  
 272    6:10   56.5    28    4.9   204      7.8   874.8    0.00      25    24.5  
 272    6:20   57.8    27    5.7   211      6.9   874.9    0.00      52    24.4  
 272    6:30   57.6    27    5.7   210      6.9   875.0    0.00      87    24.3  
 272    6:40   57.3    26    4.6   213      7.8   875.1    0.00     124    24.2  
 272    6:50   59.0    26    4.5   192      7.8   875.1    0.00     156    24.2  
 272    7:00   60.7    25    5.2   162      6.9   875.2    0.00     188    24.1  
 272    7:10   61.3    27    6.0   181      7.8   875.4    0.00     222    24.0  
 272    7:20   63.6    23    0.6   202      0.6   875.4    0.00     255    23.9  
 272    7:30   65.2    22    0.6   209      0.6   875.4    0.00     289    23.9  
 272    7:40   66.3    21    4.7   218      9.6   875.4    0.00     323    23.8  
 272    7:50   67.4    20    1.8   214      8.7   875.6    0.00     356    23.7  
 272    8:00   68.4    19    0.6   195      0.6   875.7    0.00     389    23.7  
 272    8:10   69.1    19    0.6   197      0.6   875.7    0.00     422    23.6  
 272    8:20   69.8    19    3.9   195     10.5   875.8    0.00     454    23.5  
 272    8:30   70.8    18    7.2   205      9.6   875.9    0.00     485    23.5  
 272    8:40   71.5    17    8.0   203     11.4   875.9    0.00     515    23.4  
 272    8:50   72.5    16    5.9   201     10.5   875.9    0.00     544    23.4  
 272    9:00   73.8    15    7.3   199     10.5   876.0    0.00     572    23.4  
 272    9:10   74.4    15    6.6   204      8.7   876.0    0.00     600    23.3  
 272    9:20   75.0    14    6.9   207     10.5   876.0    0.00     625    23.3  
 272    9:30   75.6    14    6.6   202     10.5   876.0    0.00     650    23.3  
 272    9:40   76.9    13    5.2   204     11.4   875.9    0.00     673    23.3  
 272    9:50   77.6    13    5.7   193      8.7   875.9    0.00     695    23.3  
 272   10:00   78.2    13    5.2   167      7.8   875.9    0.00     715    23.3  
 272   10:10   78.7    13    3.6   194      6.9   875.8    0.00     734    23.3  
 272   10:20   80.2    12    1.1   173      5.1   875.7    0.00     752    23.3  
 272   10:30   80.4    12    2.4   131      7.8   875.6    0.00     768    23.4  
 272   10:40   80.9    12    4.4   114      7.8   875.5    0.00     783    23.4  
 272   10:50   82.2    12    4.3   115      7.8   875.4    0.00     795    23.4  
 272   11:00   81.9    12    3.3   124      8.7   875.4    0.00     805    23.5  
 272   11:10   82.3    12    0.6   104      0.6   875.3    0.00     813    23.5  
 272   11:20   82.8    12    2.3   105      9.6   875.2    0.00     820    23.6  
 272   11:30   83.0    12    4.5   128      8.7   875.1    0.00     824    23.7  
 272   11:40   83.3    12    3.9   106      7.8   875.1    0.00     827    23.8  
 272   11:50   84.7    11    2.1    82      7.8   875.0    0.00     802    23.9  
 272   12:00   84.5    11    5.5    99     11.4   874.9    0.00     828    24.0  
 272   12:10   85.0    11    3.5   160      6.9   874.8    0.00     826    24.1  
 272   12:20   85.4    11    2.1    83      6.0   874.7    0.00     822    24.3  
 272   12:30   85.9    11    2.3   353      6.9   874.5    0.00     815    24.4  
 272   12:40   86.8    10    2.5   353      6.9   874.4    0.00     806    24.6  
 272   12:50   87.4    10    4.7   180      8.7   874.3    0.00     796    24.7  
 272   13:00   87.8    10    2.7    68      6.0   874.1    0.00     783    24.9  
 272   13:10   88.2    10    7.1   118     10.5   873.9    0.00     770    25.1  
 272   13:20   87.8    10    4.2   105      7.8   873.9    0.00     756    25.3  
 272   13:30   88.0    10    1.5   322      4.2   873.8    0.00     739    25.4  
 272   13:40   89.1     9    4.9    68      9.6   873.7    0.00     722    25.6  
 272   13:50   88.8    10    5.0    72     11.4   873.6    0.00     706    25.8  
 272   14:00   88.6     9    7.7    47     11.4   873.4    0.00     690    26.0  
 272   14:10   89.1     9    6.7   138     14.9   873.4    0.00     667    26.2  
 272   14:20   89.6     9    5.4   111     12.3   873.3    0.00     548    26.4  
 272   14:30   89.1     9    7.6   114     11.4   873.3    0.00     543    26.6  
 272   14:40   89.2     9    6.1   130     13.2   873.2    0.00     608    26.8  
 272   14:50   88.9     9    5.3   118     12.3   873.1    0.00     561    27.0  
 272   15:00   90.0     9    3.4    89     11.4   873.0    0.00     570    27.1  
 272   15:10   89.7     9    5.9    75     15.8   873.0    0.00     546    27.3  
 272   15:20   88.8     9    5.6    61     12.3   873.0    0.00     470    27.5  

Return to Garden Spring, Nevada graphs page.


Western Regional Climate Center,wrcc@dri.edu